Terminal Aerodrome Forecast
Issued by NWS Wakefield, VA

Home | Current Version | Previous Version | Text Only | Print | Product List | Glossary On
Versions: 1 2 3 4 5 6 7 8 9 10 11 12 13
764
FTUS41 KAKQ 231734
TAFORF
TAF
KORF 231734Z 2318/2418 19008KT P6SM SCT090
     FM240200 17004KT P6SM SCT200
     FM241000 VRB03KT 3SM BR SCT050
     FM241300 VRB03KT P6SM SCT050
     FM241500 15005KT P6SM SCT200=

USA.gov is the U.S. government's official web portal to all federal, state and local government web resources and services.